sensor_id;sensor_type;location;lat;lon;timestamp;P1;durP1;ratioP1;P2;durP2;ratioP2
22282;SDS011;11310;51.528;21.204;2023-08-20T00:00:46;11.98;;;8.07;;
22282;SDS011;11310;51.528;21.204;2023-08-20T00:03:15;11.45;;;7.90;;
22282;SDS011;11310;51.528;21.204;2023-08-20T00:05:44;13.77;;;8.32;;
22282;SDS011;11310;51.528;21.204;2023-08-20T00:08:15;12.75;;;7.90;;
22282;SDS011;11310;51.528;21.204;2023-08-20T00:10:44;11.80;;;7.57;;
22282;SDS011;11310;51.528;21.204;2023-08-20T00:13:13;13.13;;;8.10;;
22282;SDS011;11310;51.528;21.204;2023-08-20T00:15:44;11.20;;;7.57;;
22282;SDS011;11310;51.528;21.204;2023-08-20T00:18:13;11.95;;;8.13;;
22282;SDS011;11310;51.528;21.204;2023-08-20T00:20:42;12.52;;;8.00;;
22282;SDS011;11310;51.528;21.204;2023-08-20T00:23:13;11.60;;;8.15;;
22282;SDS011;11310;51.528;21.204;2023-08-20T00:25:43;10.32;;;7.95;;
22282;SDS011;11310;51.528;21.204;2023-08-20T00:28:15;11.65;;;8.63;;
22282;SDS011;11310;51.528;21.204;2023-08-20T00:30:45;13.57;;;8.75;;
22282;SDS011;11310;51.528;21.204;2023-08-20T00:33:14;12.60;;;8.30;;
22282;SDS011;11310;51.528;21.204;2023-08-20T00:38:15;14.57;;;7.78;;
22282;SDS011;11310;51.528;21.204;2023-08-20T00:40:43;11.82;;;8.30;;
22282;SDS011;11310;51.528;21.204;2023-08-20T00:43:14;11.27;;;8.50;;
22282;SDS011;11310;51.528;21.204;2023-08-20T00:45:42;12.80;;;9.25;;
22282;SDS011;11310;51.528;21.204;2023-08-20T00:48:13;13.77;;;8.97;;
22282;SDS011;11310;51.528;21.204;2023-08-20T00:50:43;14.32;;;8.18;;
22282;SDS011;11310;51.528;21.204;2023-08-20T00:53:13;14.00;;;8.43;;
22282;SDS011;11310;51.528;21.204;2023-08-20T00:55:42;13.27;;;8.80;;
22282;SDS011;11310;51.528;21.204;2023-08-20T00:58:12;14.00;;;9.10;;
22282;SDS011;11310;51.528;21.204;2023-08-20T01:00:42;13.10;;;8.75;;
22282;SDS011;11310;51.528;21.204;2023-08-20T01:03:17;12.38;;;9.30;;
22282;SDS011;11310;51.528;21.204;2023-08-20T01:05:49;11.77;;;8.52;;
22282;SDS011;11310;51.528;21.204;2023-08-20T01:08:25;11.50;;;8.57;;
22282;SDS011;11310;51.528;21.204;2023-08-20T01:10:59;10.77;;;8.27;;
22282;SDS011;11310;51.528;21.204;2023-08-20T01:13:37;14.30;;;8.35;;
22282;SDS011;11310;51.528;21.204;2023-08-20T01:16:06;13.80;;;9.07;;
22282;SDS011;11310;51.528;21.204;2023-08-20T01:18:36;14.20;;;9.25;;
22282;SDS011;11310;51.528;21.204;2023-08-20T01:21:09;12.80;;;8.85;;
22282;SDS011;11310;51.528;21.204;2023-08-20T01:24:05;12.82;;;8.60;;
22282;SDS011;11310;51.528;21.204;2023-08-20T01:29:38;14.27;;;9.52;;
22282;SDS011;11310;51.528;21.204;2023-08-20T01:32:07;13.25;;;9.35;;
22282;SDS011;11310;51.528;21.204;2023-08-20T01:34:37;12.52;;;8.57;;
22282;SDS011;11310;51.528;21.204;2023-08-20T01:37:06;17.05;;;9.30;;
22282;SDS011;11310;51.528;21.204;2023-08-20T01:39:37;13.48;;;9.55;;
22282;SDS011;11310;51.528;21.204;2023-08-20T01:42:06;14.18;;;9.80;;
22282;SDS011;11310;51.528;21.204;2023-08-20T01:44:35;12.70;;;8.68;;
22282;SDS011;11310;51.528;21.204;2023-08-20T01:47:05;14.60;;;9.25;;
22282;SDS011;11310;51.528;21.204;2023-08-20T01:49:42;11.60;;;8.13;;
22282;SDS011;11310;51.528;21.204;2023-08-20T01:52:10;13.10;;;8.85;;
22282;SDS011;11310;51.528;21.204;2023-08-20T01:54:40;13.20;;;9.45;;
22282;SDS011;11310;51.528;21.204;2023-08-20T01:57:11;13.93;;;9.07;;
22282;SDS011;11310;51.528;21.204;2023-08-20T01:59:43;12.52;;;9.05;;
22282;SDS011;11310;51.528;21.204;2023-08-20T02:02:16;15.48;;;8.75;;
22282;SDS011;11310;51.528;21.204;2023-08-20T02:04:45;12.10;;;8.73;;
22282;SDS011;11310;51.528;21.204;2023-08-20T02:07:15;13.77;;;9.13;;
22282;SDS011;11310;51.528;21.204;2023-08-20T02:09:45;12.95;;;8.60;;
22282;SDS011;11310;51.528;21.204;2023-08-20T02:12:15;15.23;;;9.20;;
22282;SDS011;11310;51.528;21.204;2023-08-20T02:14:43;14.35;;;9.05;;
22282;SDS011;11310;51.528;21.204;2023-08-20T02:17:12;11.95;;;8.73;;
22282;SDS011;11310;51.528;21.204;2023-08-20T02:19:42;12.93;;;9.02;;
22282;SDS011;11310;51.528;21.204;2023-08-20T02:22:12;11.73;;;8.48;;
22282;SDS011;11310;51.528;21.204;2023-08-20T02:24:40;12.85;;;8.75;;
22282;SDS011;11310;51.528;21.204;2023-08-20T02:27:09;12.52;;;8.68;;
22282;SDS011;11310;51.528;21.204;2023-08-20T02:29:38;12.85;;;8.45;;
22282;SDS011;11310;51.528;21.204;2023-08-20T02:32:08;10.52;;;8.13;;
22282;SDS011;11310;51.528;21.204;2023-08-20T02:34:36;12.65;;;8.80;;
22282;SDS011;11310;51.528;21.204;2023-08-20T02:37:06;12.88;;;7.95;;
22282;SDS011;11310;51.528;21.204;2023-08-20T02:39:35;11.20;;;8.27;;
22282;SDS011;11310;51.528;21.204;2023-08-20T02:42:04;11.32;;;8.05;;
22282;SDS011;11310;51.528;21.204;2023-08-20T02:44:33;10.57;;;8.07;;
22282;SDS011;11310;51.528;21.204;2023-08-20T02:47:02;11.55;;;7.90;;
22282;SDS011;11310;51.528;21.204;2023-08-20T02:49:31;11.18;;;7.65;;
22282;SDS011;11310;51.528;21.204;2023-08-20T02:51:59;11.02;;;8.02;;
22282;SDS011;11310;51.528;21.204;2023-08-20T02:54:31;10.02;;;7.68;;
22282;SDS011;11310;51.528;21.204;2023-08-20T02:56:59;11.88;;;8.10;;
22282;SDS011;11310;51.528;21.204;2023-08-20T02:59:28;13.15;;;7.38;;
22282;SDS011;11310;51.528;21.204;2023-08-20T03:01:56;10.43;;;7.57;;
22282;SDS011;11310;51.528;21.204;2023-08-20T03:04:25;10.13;;;7.40;;
22282;SDS011;11310;51.528;21.204;2023-08-20T03:06:55;12.40;;;7.85;;
22282;SDS011;11310;51.528;21.204;2023-08-20T03:09:23;11.05;;;7.32;;
22282;SDS011;11310;51.528;21.204;2023-08-20T03:11:54;11.13;;;7.38;;
22282;SDS011;11310;51.528;21.204;2023-08-20T03:14:23;12.32;;;7.95;;
22282;SDS011;11310;51.528;21.204;2023-08-20T03:16:55;11.48;;;7.93;;
22282;SDS011;11310;51.528;21.204;2023-08-20T03:19:24;12.48;;;8.00;;
22282;SDS011;11310;51.528;21.204;2023-08-20T03:21:52;11.50;;;7.82;;
22282;SDS011;11310;51.528;21.204;2023-08-20T03:24:21;13.63;;;8.52;;
22282;SDS011;11310;51.528;21.204;2023-08-20T03:26:50;11.00;;;7.53;;
22282;SDS011;11310;51.528;21.204;2023-08-20T03:29:20;11.02;;;8.23;;
22282;SDS011;11310;51.528;21.204;2023-08-20T03:31:50;14.13;;;8.45;;
22282;SDS011;11310;51.528;21.204;2023-08-20T03:34:20;11.63;;;7.72;;
22282;SDS011;11310;51.528;21.204;2023-08-20T03:36:48;13.95;;;7.97;;
22282;SDS011;11310;51.528;21.204;2023-08-20T03:39:18;11.30;;;8.23;;
22282;SDS011;11310;51.528;21.204;2023-08-20T03:41:47;11.75;;;7.45;;
22282;SDS011;11310;51.528;21.204;2023-08-20T03:44:17;11.23;;;8.07;;
22282;SDS011;11310;51.528;21.204;2023-08-20T03:46:47;10.73;;;7.95;;
22282;SDS011;11310;51.528;21.204;2023-08-20T03:49:16;11.50;;;7.50;;
22282;SDS011;11310;51.528;21.204;2023-08-20T03:51:45;11.95;;;8.00;;
22282;SDS011;11310;51.528;21.204;2023-08-20T03:54:14;12.35;;;7.72;;
22282;SDS011;11310;51.528;21.204;2023-08-20T03:56:42;11.02;;;7.53;;
22282;SDS011;11310;51.528;21.204;2023-08-20T03:59:11;12.60;;;7.63;;
22282;SDS011;11310;51.528;21.204;2023-08-20T04:01:40;11.23;;;7.88;;
22282;SDS011;11310;51.528;21.204;2023-08-20T04:04:10;14.60;;;8.27;;
22282;SDS011;11310;51.528;21.204;2023-08-20T04:06:39;15.27;;;8.35;;
22282;SDS011;11310;51.528;21.204;2023-08-20T04:09:08;13.85;;;7.22;;
22282;SDS011;11310;51.528;21.204;2023-08-20T04:11:38;11.52;;;7.70;;
22282;SDS011;11310;51.528;21.204;2023-08-20T04:14:09;11.02;;;7.95;;
22282;SDS011;11310;51.528;21.204;2023-08-20T04:16:38;13.75;;;8.07;;
22282;SDS011;11310;51.528;21.204;2023-08-20T04:19:08;10.73;;;7.68;;
22282;SDS011;11310;51.528;21.204;2023-08-20T04:21:38;11.80;;;7.72;;
22282;SDS011;11310;51.528;21.204;2023-08-20T04:24:08;12.07;;;8.07;;
22282;SDS011;11310;51.528;21.204;2023-08-20T04:26:39;12.90;;;7.88;;
22282;SDS011;11310;51.528;21.204;2023-08-20T04:29:08;16.02;;;8.23;;
22282;SDS011;11310;51.528;21.204;2023-08-20T04:31:38;10.73;;;7.95;;
22282;SDS011;11310;51.528;21.204;2023-08-20T04:34:09;13.43;;;8.07;;
22282;SDS011;11310;51.528;21.204;2023-08-20T04:36:45;11.25;;;8.02;;
22282;SDS011;11310;51.528;21.204;2023-08-20T04:39:14;11.85;;;8.00;;
22282;SDS011;11310;51.528;21.204;2023-08-20T04:41:47;13.98;;;7.95;;
22282;SDS011;11310;51.528;21.204;2023-08-20T04:44:17;10.20;;;7.63;;
22282;SDS011;11310;51.528;21.204;2023-08-20T04:46:49;11.55;;;7.82;;
22282;SDS011;11310;51.528;21.204;2023-08-20T04:49:18;12.57;;;7.85;;
22282;SDS011;11310;51.528;21.204;2023-08-20T04:51:48;11.18;;;8.23;;
22282;SDS011;11310;51.528;21.204;2023-08-20T04:54:16;10.45;;;8.02;;
22282;SDS011;11310;51.528;21.204;2023-08-20T04:56:45;12.52;;;8.05;;
22282;SDS011;11310;51.528;21.204;2023-08-20T04:59:14;11.25;;;8.02;;
22282;SDS011;11310;51.528;21.204;2023-08-20T05:02:06;13.75;;;8.38;;
22282;SDS011;11310;51.528;21.204;2023-08-20T05:04:49;14.98;;;8.60;;
22282;SDS011;11310;51.528;21.204;2023-08-20T05:07:20;12.43;;;8.18;;
22282;SDS011;11310;51.528;21.204;2023-08-20T05:09:49;12.98;;;8.43;;
22282;SDS011;11310;51.528;21.204;2023-08-20T05:12:18;14.43;;;8.70;;
22282;SDS011;11310;51.528;21.204;2023-08-20T05:14:47;14.07;;;8.90;;
22282;SDS011;11310;51.528;21.204;2023-08-20T05:17:16;13.40;;;8.73;;
22282;SDS011;11310;51.528;21.204;2023-08-20T05:19:45;11.65;;;8.50;;
22282;SDS011;11310;51.528;21.204;2023-08-20T05:22:14;14.57;;;8.93;;
22282;SDS011;11310;51.528;21.204;2023-08-20T05:24:44;12.98;;;8.13;;
22282;SDS011;11310;51.528;21.204;2023-08-20T05:27:14;11.85;;;8.40;;
22282;SDS011;11310;51.528;21.204;2023-08-20T05:29:49;12.13;;;8.38;;
22282;SDS011;11310;51.528;21.204;2023-08-20T05:32:19;12.07;;;8.48;;
22282;SDS011;11310;51.528;21.204;2023-08-20T05:34:49;13.50;;;8.73;;
22282;SDS011;11310;51.528;21.204;2023-08-20T05:37:20;13.15;;;8.70;;
22282;SDS011;11310;51.528;21.204;2023-08-20T05:39:51;11.38;;;8.20;;
22282;SDS011;11310;51.528;21.204;2023-08-20T05:42:20;15.60;;;8.90;;
22282;SDS011;11310;51.528;21.204;2023-08-20T05:44:57;13.57;;;9.00;;
22282;SDS011;11310;51.528;21.204;2023-08-20T05:47:27;11.85;;;8.57;;
22282;SDS011;11310;51.528;21.204;2023-08-20T05:49:56;13.27;;;8.75;;
22282;SDS011;11310;51.528;21.204;2023-08-20T05:52:25;14.18;;;8.95;;
22282;SDS011;11310;51.528;21.204;2023-08-20T05:54:56;13.40;;;8.50;;
22282;SDS011;11310;51.528;21.204;2023-08-20T05:57:28;12.73;;;8.05;;
22282;SDS011;11310;51.528;21.204;2023-08-20T05:59:58;12.40;;;8.63;;
22282;SDS011;11310;51.528;21.204;2023-08-20T06:02:27;12.45;;;8.73;;
22282;SDS011;11310;51.528;21.204;2023-08-20T06:04:56;12.13;;;8.50;;
22282;SDS011;11310;51.528;21.204;2023-08-20T06:07:26;11.35;;;8.02;;
22282;SDS011;11310;51.528;21.204;2023-08-20T06:09:56;12.70;;;7.97;;
22282;SDS011;11310;51.528;21.204;2023-08-20T06:12:25;14.55;;;8.20;;
22282;SDS011;11310;51.528;21.204;2023-08-20T06:14:54;13.55;;;8.63;;
22282;SDS011;11310;51.528;21.204;2023-08-20T06:17:23;12.10;;;8.10;;
22282;SDS011;11310;51.528;21.204;2023-08-20T06:19:52;11.32;;;8.02;;
22282;SDS011;11310;51.528;21.204;2023-08-20T06:22:21;11.38;;;8.52;;
22282;SDS011;11310;51.528;21.204;2023-08-20T06:24:50;13.57;;;8.65;;
22282;SDS011;11310;51.528;21.204;2023-08-20T06:30:15;12.52;;;8.30;;
22282;SDS011;11310;51.528;21.204;2023-08-20T06:32:45;12.25;;;8.27;;
22282;SDS011;11310;51.528;21.204;2023-08-20T06:35:14;11.40;;;8.38;;
22282;SDS011;11310;51.528;21.204;2023-08-20T06:37:42;12.00;;;8.18;;
22282;SDS011;11310;51.528;21.204;2023-08-20T06:40:11;12.73;;;8.02;;
22282;SDS011;11310;51.528;21.204;2023-08-20T06:42:41;11.35;;;8.48;;
22282;SDS011;11310;51.528;21.204;2023-08-20T06:45:11;12.65;;;8.40;;
22282;SDS011;11310;51.528;21.204;2023-08-20T06:47:40;15.73;;;9.30;;
22282;SDS011;11310;51.528;21.204;2023-08-20T06:50:09;12.18;;;8.60;;
22282;SDS011;11310;51.528;21.204;2023-08-20T06:52:39;13.43;;;8.27;;
22282;SDS011;11310;51.528;21.204;2023-08-20T06:55:08;10.95;;;8.00;;
22282;SDS011;11310;51.528;21.204;2023-08-20T06:57:37;13.15;;;9.43;;
22282;SDS011;11310;51.528;21.204;2023-08-20T07:00:06;13.43;;;9.50;;
22282;SDS011;11310;51.528;21.204;2023-08-20T07:02:37;12.43;;;8.68;;
22282;SDS011;11310;51.528;21.204;2023-08-20T07:05:06;11.73;;;8.18;;
22282;SDS011;11310;51.528;21.204;2023-08-20T07:07:36;10.65;;;8.55;;
22282;SDS011;11310;51.528;21.204;2023-08-20T07:10:06;14.55;;;9.48;;
22282;SDS011;11310;51.528;21.204;2023-08-20T07:12:35;14.05;;;8.90;;
22282;SDS011;11310;51.528;21.204;2023-08-20T07:15:07;12.55;;;8.07;;
22282;SDS011;11310;51.528;21.204;2023-08-20T07:17:38;10.00;;;8.02;;
22282;SDS011;11310;51.528;21.204;2023-08-20T07:20:09;12.80;;;8.68;;
22282;SDS011;11310;51.528;21.204;2023-08-20T07:22:44;11.90;;;8.15;;
22282;SDS011;11310;51.528;21.204;2023-08-20T07:25:16;11.07;;;8.10;;
22282;SDS011;11310;51.528;21.204;2023-08-20T07:27:45;11.07;;;8.10;;
22282;SDS011;11310;51.528;21.204;2023-08-20T07:30:14;11.20;;;8.32;;
22282;SDS011;11310;51.528;21.204;2023-08-20T07:32:46;11.02;;;8.40;;
22282;SDS011;11310;51.528;21.204;2023-08-20T07:35:15;14.18;;;8.80;;
22282;SDS011;11310;51.528;21.204;2023-08-20T07:37:49;14.45;;;8.63;;
22282;SDS011;11310;51.528;21.204;2023-08-20T07:40:17;12.75;;;8.27;;
22282;SDS011;11310;51.528;21.204;2023-08-20T07:45:20;10.65;;;7.07;;
22282;SDS011;11310;51.528;21.204;2023-08-20T07:47:50;11.18;;;7.88;;
22282;SDS011;11310;51.528;21.204;2023-08-20T07:50:21;10.50;;;7.90;;
22282;SDS011;11310;51.528;21.204;2023-08-20T07:52:55;11.95;;;8.02;;
22282;SDS011;11310;51.528;21.204;2023-08-20T07:55:28;10.82;;;8.25;;
22282;SDS011;11310;51.528;21.204;2023-08-20T07:57:57;10.95;;;8.05;;
22282;SDS011;11310;51.528;21.204;2023-08-20T08:00:25;11.80;;;7.75;;
22282;SDS011;11310;51.528;21.204;2023-08-20T08:02:58;9.73;;;7.40;;
22282;SDS011;11310;51.528;21.204;2023-08-20T08:05:30;14.23;;;8.40;;
22282;SDS011;11310;51.528;21.204;2023-08-20T08:07:59;15.00;;;7.85;;
22282;SDS011;11310;51.528;21.204;2023-08-20T08:10:30;12.93;;;7.47;;
22282;SDS011;11310;51.528;21.204;2023-08-20T08:13:01;10.88;;;7.15;;
22282;SDS011;11310;51.528;21.204;2023-08-20T08:15:31;12.98;;;7.15;;
22282;SDS011;11310;51.528;21.204;2023-08-20T08:18:01;10.35;;;7.30;;
22282;SDS011;11310;51.528;21.204;2023-08-20T08:20:30;11.40;;;7.75;;
22282;SDS011;11310;51.528;21.204;2023-08-20T08:22:59;13.02;;;8.25;;
22282;SDS011;11310;51.528;21.204;2023-08-20T08:25:32;9.35;;;7.10;;
22282;SDS011;11310;51.528;21.204;2023-08-20T08:28:03;11.23;;;7.18;;
22282;SDS011;11310;51.528;21.204;2023-08-20T08:30:36;11.27;;;7.47;;
22282;SDS011;11310;51.528;21.204;2023-08-20T08:33:09;10.82;;;7.30;;
22282;SDS011;11310;51.528;21.204;2023-08-20T08:35:38;12.27;;;7.03;;
22282;SDS011;11310;51.528;21.204;2023-08-20T08:38:09;10.93;;;7.88;;
22282;SDS011;11310;51.528;21.204;2023-08-20T08:40:39;11.35;;;7.28;;
22282;SDS011;11310;51.528;21.204;2023-08-20T08:43:11;10.57;;;7.35;;
22282;SDS011;11310;51.528;21.204;2023-08-20T08:45:47;10.07;;;7.22;;
22282;SDS011;11310;51.528;21.204;2023-08-20T08:48:20;10.95;;;7.22;;
22282;SDS011;11310;51.528;21.204;2023-08-20T08:50:54;10.80;;;7.38;;
22282;SDS011;11310;51.528;21.204;2023-08-20T08:53:27;14.10;;;7.80;;
22282;SDS011;11310;51.528;21.204;2023-08-20T08:56:02;11.63;;;7.22;;
22282;SDS011;11310;51.528;21.204;2023-08-20T08:58:33;10.07;;;7.50;;
22282;SDS011;11310;51.528;21.204;2023-08-20T09:01:02;10.20;;;7.40;;
22282;SDS011;11310;51.528;21.204;2023-08-20T09:03:35;9.95;;;7.00;;
22282;SDS011;11310;51.528;21.204;2023-08-20T09:06:07;10.98;;;6.57;;
22282;SDS011;11310;51.528;21.204;2023-08-20T09:08:38;9.02;;;7.07;;
22282;SDS011;11310;51.528;21.204;2023-08-20T09:11:10;11.18;;;7.20;;
22282;SDS011;11310;51.528;21.204;2023-08-20T09:13:39;10.35;;;7.38;;
22282;SDS011;11310;51.528;21.204;2023-08-20T09:16:09;11.45;;;6.90;;
22282;SDS011;11310;51.528;21.204;2023-08-20T09:18:41;10.45;;;7.05;;
22282;SDS011;11310;51.528;21.204;2023-08-20T09:21:15;12.63;;;7.45;;
22282;SDS011;11310;51.528;21.204;2023-08-20T09:23:49;10.15;;;7.20;;
22282;SDS011;11310;51.528;21.204;2023-08-20T09:26:18;11.57;;;7.53;;
22282;SDS011;11310;51.528;21.204;2023-08-20T09:28:47;11.40;;;7.45;;
22282;SDS011;11310;51.528;21.204;2023-08-20T09:31:15;9.88;;;6.90;;
22282;SDS011;11310;51.528;21.204;2023-08-20T09:33:54;10.80;;;7.05;;
22282;SDS011;11310;51.528;21.204;2023-08-20T09:36:29;10.02;;;6.85;;
22282;SDS011;11310;51.528;21.204;2023-08-20T09:39:00;8.82;;;6.60;;
22282;SDS011;11310;51.528;21.204;2023-08-20T09:41:29;10.45;;;6.75;;
22282;SDS011;11310;51.528;21.204;2023-08-20T09:43:58;8.90;;;6.55;;
22282;SDS011;11310;51.528;21.204;2023-08-20T09:46:27;9.57;;;6.75;;
22282;SDS011;11310;51.528;21.204;2023-08-20T09:49:01;9.75;;;7.07;;
22282;SDS011;11310;51.528;21.204;2023-08-20T09:54:06;9.18;;;5.97;;
22282;SDS011;11310;51.528;21.204;2023-08-20T09:56:41;10.18;;;6.43;;
22282;SDS011;11310;51.528;21.204;2023-08-20T09:59:13;9.18;;;6.50;;
22282;SDS011;11310;51.528;21.204;2023-08-20T10:01:44;12.27;;;7.23;;
22282;SDS011;11310;51.528;21.204;2023-08-20T10:04:16;10.07;;;6.78;;
22282;SDS011;11310;51.528;21.204;2023-08-20T10:06:46;10.68;;;7.00;;
22282;SDS011;11310;51.528;21.204;2023-08-20T10:09:16;10.40;;;6.80;;
22282;SDS011;11310;51.528;21.204;2023-08-20T10:11:45;9.25;;;6.47;;
22282;SDS011;11310;51.528;21.204;2023-08-20T10:14:15;10.60;;;6.32;;
22282;SDS011;11310;51.528;21.204;2023-08-20T10:16:47;8.85;;;6.85;;
22282;SDS011;11310;51.528;21.204;2023-08-20T10:19:17;8.98;;;6.70;;
22282;SDS011;11310;51.528;21.204;2023-08-20T10:21:48;9.77;;;6.45;;
22282;SDS011;11310;51.528;21.204;2023-08-20T10:24:20;9.20;;;6.43;;
22282;SDS011;11310;51.528;21.204;2023-08-20T10:27:06;9.05;;;6.43;;
22282;SDS011;11310;51.528;21.204;2023-08-20T10:29:37;13.60;;;6.72;;
22282;SDS011;11310;51.528;21.204;2023-08-20T10:32:08;8.85;;;6.63;;
22282;SDS011;11310;51.528;21.204;2023-08-20T10:34:39;9.00;;;6.55;;
22282;SDS011;11310;51.528;21.204;2023-08-20T10:37:10;9.07;;;6.85;;
22282;SDS011;11310;51.528;21.204;2023-08-20T10:42:21;9.10;;;6.53;;
22282;SDS011;11310;51.528;21.204;2023-08-20T10:44:59;9.40;;;6.80;;
22282;SDS011;11310;51.528;21.204;2023-08-20T10:47:36;8.90;;;6.70;;
22282;SDS011;11310;51.528;21.204;2023-08-20T10:50:11;11.52;;;6.78;;
22282;SDS011;11310;51.528;21.204;2023-08-20T10:52:47;10.50;;;6.47;;
22282;SDS011;11310;51.528;21.204;2023-08-20T10:55:21;9.23;;;6.43;;
22282;SDS011;11310;51.528;21.204;2023-08-20T10:57:54;9.85;;;6.22;;
22282;SDS011;11310;51.528;21.204;2023-08-20T11:00:22;9.38;;;6.47;;
22282;SDS011;11310;51.528;21.204;2023-08-20T11:02:51;9.48;;;6.72;;
22282;SDS011;11310;51.528;21.204;2023-08-20T11:05:22;8.00;;;6.13;;
22282;SDS011;11310;51.528;21.204;2023-08-20T11:07:51;9.07;;;5.75;;
22282;SDS011;11310;51.528;21.204;2023-08-20T11:10:20;9.80;;;6.63;;
22282;SDS011;11310;51.528;21.204;2023-08-20T11:12:49;9.35;;;6.03;;
22282;SDS011;11310;51.528;21.204;2023-08-20T11:15:18;9.65;;;6.47;;
22282;SDS011;11310;51.528;21.204;2023-08-20T11:17:49;8.90;;;6.57;;
22282;SDS011;11310;51.528;21.204;2023-08-20T11:20:18;8.32;;;6.10;;
22282;SDS011;11310;51.528;21.204;2023-08-20T11:22:48;11.52;;;6.13;;
22282;SDS011;11310;51.528;21.204;2023-08-20T11:25:17;8.45;;;6.00;;
22282;SDS011;11310;51.528;21.204;2023-08-20T11:27:45;8.85;;;6.30;;
22282;SDS011;11310;51.528;21.204;2023-08-20T11:30:14;12.00;;;6.32;;
22282;SDS011;11310;51.528;21.204;2023-08-20T11:32:43;9.27;;;5.85;;
22282;SDS011;11310;51.528;21.204;2023-08-20T11:35:13;10.05;;;6.07;;
22282;SDS011;11310;51.528;21.204;2023-08-20T11:37:42;10.65;;;6.25;;
22282;SDS011;11310;51.528;21.204;2023-08-20T11:40:12;9.10;;;6.07;;
22282;SDS011;11310;51.528;21.204;2023-08-20T11:42:40;9.90;;;5.75;;
22282;SDS011;11310;51.528;21.204;2023-08-20T11:45:10;8.48;;;5.43;;
22282;SDS011;11310;51.528;21.204;2023-08-20T11:47:38;10.10;;;4.97;;
22282;SDS011;11310;51.528;21.204;2023-08-20T11:50:08;9.50;;;5.07;;
22282;SDS011;11310;51.528;21.204;2023-08-20T11:52:38;6.50;;;4.22;;
22282;SDS011;11310;51.528;21.204;2023-08-20T11:55:07;8.15;;;4.72;;
22282;SDS011;11310;51.528;21.204;2023-08-20T11:57:38;8.18;;;5.22;;
22282;SDS011;11310;51.528;21.204;2023-08-20T12:00:07;9.70;;;5.65;;
22282;SDS011;11310;51.528;21.204;2023-08-20T12:02:42;8.98;;;5.68;;
22282;SDS011;11310;51.528;21.204;2023-08-20T12:05:11;8.70;;;5.75;;
22282;SDS011;11310;51.528;21.204;2023-08-20T12:07:40;10.73;;;6.20;;
22282;SDS011;11310;51.528;21.204;2023-08-20T12:10:21;11.63;;;5.80;;
22282;SDS011;11310;51.528;21.204;2023-08-20T12:12:51;10.27;;;5.30;;
22282;SDS011;11310;51.528;21.204;2023-08-20T12:15:20;8.63;;;4.70;;
22282;SDS011;11310;51.528;21.204;2023-08-20T12:17:56;7.68;;;4.50;;
22282;SDS011;11310;51.528;21.204;2023-08-20T12:20:28;6.90;;;4.10;;
22282;SDS011;11310;51.528;21.204;2023-08-20T12:22:59;7.22;;;4.53;;
22282;SDS011;11310;51.528;21.204;2023-08-20T12:25:30;7.88;;;4.90;;
22282;SDS011;11310;51.528;21.204;2023-08-20T12:28:02;8.82;;;5.20;;
22282;SDS011;11310;51.528;21.204;2023-08-20T12:30:31;8.63;;;5.00;;
22282;SDS011;11310;51.528;21.204;2023-08-20T12:33:04;7.97;;;4.93;;
22282;SDS011;11310;51.528;21.204;2023-08-20T12:35:34;7.70;;;4.95;;
22282;SDS011;11310;51.528;21.204;2023-08-20T12:38:03;10.20;;;4.88;;
22282;SDS011;11310;51.528;21.204;2023-08-20T12:40:33;7.82;;;5.10;;
22282;SDS011;11310;51.528;21.204;2023-08-20T12:43:03;8.43;;;5.15;;
22282;SDS011;11310;51.528;21.204;2023-08-20T12:45:32;8.55;;;5.10;;
22282;SDS011;11310;51.528;21.204;2023-08-20T12:48:01;10.68;;;5.80;;
22282;SDS011;11310;51.528;21.204;2023-08-20T12:50:30;7.68;;;5.72;;
22282;SDS011;11310;51.528;21.204;2023-08-20T12:52:58;9.57;;;5.60;;
22282;SDS011;11310;51.528;21.204;2023-08-20T12:55:27;8.25;;;5.20;;
22282;SDS011;11310;51.528;21.204;2023-08-20T12:57:56;10.00;;;5.75;;
22282;SDS011;11310;51.528;21.204;2023-08-20T13:00:28;8.43;;;4.78;;
22282;SDS011;11310;51.528;21.204;2023-08-20T13:02:57;8.15;;;5.50;;
22282;SDS011;11310;51.528;21.204;2023-08-20T13:05:26;8.52;;;5.45;;
22282;SDS011;11310;51.528;21.204;2023-08-20T13:07:56;8.15;;;5.93;;
22282;SDS011;11310;51.528;21.204;2023-08-20T13:10:25;8.38;;;5.82;;
22282;SDS011;11310;51.528;21.204;2023-08-20T13:12:58;9.85;;;5.90;;
22282;SDS011;11310;51.528;21.204;2023-08-20T13:15:30;11.23;;;5.53;;
22282;SDS011;11310;51.528;21.204;2023-08-20T13:18:02;8.48;;;5.22;;
22282;SDS011;11310;51.528;21.204;2023-08-20T13:20:32;9.40;;;5.90;;
22282;SDS011;11310;51.528;21.204;2023-08-20T13:23:01;9.35;;;5.25;;
22282;SDS011;11310;51.528;21.204;2023-08-20T13:25:29;7.20;;;5.53;;
22282;SDS011;11310;51.528;21.204;2023-08-20T13:27:57;7.60;;;5.05;;
22282;SDS011;11310;51.528;21.204;2023-08-20T13:30:26;7.95;;;5.55;;
22282;SDS011;11310;51.528;21.204;2023-08-20T13:32:56;7.95;;;5.80;;
22282;SDS011;11310;51.528;21.204;2023-08-20T13:35:24;8.65;;;5.68;;
22282;SDS011;11310;51.528;21.204;2023-08-20T13:37:53;8.35;;;5.85;;
22282;SDS011;11310;51.528;21.204;2023-08-20T13:40:21;11.57;;;5.90;;
22282;SDS011;11310;51.528;21.204;2023-08-20T13:42:50;9.18;;;5.13;;
22282;SDS011;11310;51.528;21.204;2023-08-20T13:45:19;9.35;;;5.80;;
22282;SDS011;11310;51.528;21.204;2023-08-20T13:47:48;8.65;;;5.90;;
22282;SDS011;11310;51.528;21.204;2023-08-20T13:50:18;8.95;;;5.95;;
22282;SDS011;11310;51.528;21.204;2023-08-20T13:52:47;9.15;;;6.55;;
22282;SDS011;11310;51.528;21.204;2023-08-20T13:55:15;9.35;;;6.05;;
22282;SDS011;11310;51.528;21.204;2023-08-20T13:57:44;12.82;;;6.20;;
22282;SDS011;11310;51.528;21.204;2023-08-20T14:00:12;8.05;;;5.72;;
22282;SDS011;11310;51.528;21.204;2023-08-20T14:02:42;11.25;;;6.20;;
22282;SDS011;11310;51.528;21.204;2023-08-20T14:05:11;8.52;;;6.03;;
22282;SDS011;11310;51.528;21.204;2023-08-20T14:07:41;9.55;;;5.93;;
22282;SDS011;11310;51.528;21.204;2023-08-20T14:10:10;8.98;;;6.13;;
22282;SDS011;11310;51.528;21.204;2023-08-20T14:12:38;8.57;;;6.40;;
22282;SDS011;11310;51.528;21.204;2023-08-20T14:15:08;10.38;;;5.90;;
22282;SDS011;11310;51.528;21.204;2023-08-20T14:17:37;9.80;;;6.03;;
22282;SDS011;11310;51.528;21.204;2023-08-20T14:20:06;8.32;;;6.25;;
22282;SDS011;11310;51.528;21.204;2023-08-20T14:22:38;8.85;;;6.30;;
22282;SDS011;11310;51.528;21.204;2023-08-20T14:25:08;8.45;;;6.00;;
22282;SDS011;11310;51.528;21.204;2023-08-20T14:27:37;9.68;;;6.32;;
22282;SDS011;11310;51.528;21.204;2023-08-20T14:30:07;8.15;;;6.05;;
22282;SDS011;11310;51.528;21.204;2023-08-20T14:32:38;10.38;;;6.15;;
22282;SDS011;11310;51.528;21.204;2023-08-20T14:35:07;12.02;;;6.07;;
22282;SDS011;11310;51.528;21.204;2023-08-20T14:37:36;8.95;;;6.45;;
22282;SDS011;11310;51.528;21.204;2023-08-20T14:40:06;14.23;;;6.35;;
22282;SDS011;11310;51.528;21.204;2023-08-20T14:42:38;8.13;;;5.70;;
22282;SDS011;11310;51.528;21.204;2023-08-20T14:45:08;7.97;;;5.93;;
22282;SDS011;11310;51.528;21.204;2023-08-20T14:47:37;9.63;;;6.00;;
22282;SDS011;11310;51.528;21.204;2023-08-20T14:50:06;8.50;;;6.20;;
22282;SDS011;11310;51.528;21.204;2023-08-20T14:52:35;9.20;;;6.78;;
22282;SDS011;11310;51.528;21.204;2023-08-20T14:55:05;8.60;;;6.53;;
22282;SDS011;11310;51.528;21.204;2023-08-20T14:57:35;8.98;;;6.32;;
22282;SDS011;11310;51.528;21.204;2023-08-20T15:00:19;9.57;;;6.97;;